Nearby METAR Reports

 

KSJC - San Jose, California, USA
Distance from station: NØ 14km
Oppdatert: 17/07/2019 01:53
Few Clouds
Few Clouds
 Vind fra NNV
Vind: NNV 20 km/h, Vindkast: 30 km/h
Temperatur: 28°C
Heat Index: 27°C
Duggpunkt: 13°C
Fuktighet: 40%
Barometer: 1012.5 hPa
Clouds: Few Clouds
Visibility: 16 km
Cloud details: Few Clouds 2438 m
Few Clouds 4877 m
2019/07/16 23:53 KSJC 162353Z 34011G16KT 10SM FEW080 FEW160 28/13 A2990 RMK AO2 SLP124 T02780133 10289 20250 58005 $
KNUQ - Moffett Nas/Mtn, California, USA
Distance from station: N 14km
Oppdatert: 17/07/2019 01:56
Klart
Klart
 Vind fra VNV
Vind: VNV 20 km/h, Vindkast: 33 km/h
Temperatur: 29°C
Duggpunkt: 9°C
Fuktighet: 29%
Barometer: 1012.5 hPa
Clouds: Klart
Visibility: 16 km
2019/07/16 23:56 KNUQ 162356Z 30011G18KT 10SM CLR 29/09 A2990 RMK AO2 SLP127 T02940089 10306 20244 58010 $
 
KPAO - Palo Alto, California, USA
Distance from station: NNV 23km
Oppdatert: 17/07/2019 01:47
Klart
Klart
 Vind fra V
Vind: V 24 km/h, Vindkast: 43 km/h
Temperatur: 27°C
Duggpunkt: 10°C
Fuktighet: 34%
Barometer: 1012.5 hPa
Clouds: Klart
Visibility: 16 km
2019/07/16 23:47 KPAO 162347Z 28013G23KT 10SM SKC 27/10 A2990
KRHV - San Jose/Reid, California, USA
Distance from station: ØNØ 19km
Oppdatert: 17/07/2019 01:47
Klart
Klart
 Vind fra NV
Vind: NV 20 km/h, Vindkast: 35 km/h
Temperatur: 28°C
Duggpunkt: 10°C
Fuktighet: 32%
Barometer: 1012.9 hPa
Clouds: Klart
Visibility: 16 km
2019/07/16 23:47 KRHV 162347Z 32011G19KT 10SM SKC 28/10 A2991
 
KOAK - Oakland, California, USA
Distance from station: NNV 50km
Oppdatert: 17/07/2019 01:53
Few Clouds
Few Clouds
 Vind fra V
Vind: V 31 km/h
Temperatur: 22°C
Duggpunkt: 13°C
Fuktighet: 57%
Barometer: 1012.5 hPa
Clouds: Few Clouds
Visibility: 16 km
Cloud details: Few Clouds 305 m
Few Clouds 5486 m
2019/07/16 23:53 KOAK 162353Z 26017KT 10SM FEW010 FEW180 22/13 A2990 RMK AO2 SLP126 T02220128 10244 20194 58007
KSQL - San Carlos Airpo, California, USA
Distance from station: NV 34km
Oppdatert: 17/07/2019 01:58
Klart
Klart
 Vind fra VSV
Vind: VSV 22 km/h, Vindkast: 33 km/h
Temperatur: 24°C
Duggpunkt: 11°C
Fuktighet: 44%
Barometer: 1012.9 hPa
Clouds: Klart
Visibility: 16 km
2019/07/16 23:58 KSQL 162358Z 25012G18KT 10SM SKC 24/11 A2991
 
KSFO - San Francisco, California, USA
Distance from station: NV 49km
Oppdatert: 17/07/2019 01:56
Few Clouds
Few Clouds
 Vind fra V
Vind: V 39 km/h, Vindkast: 52 km/h
Temperatur: 22°C
Duggpunkt: 11°C
Fuktighet: 50%
Barometer: 1012.5 hPa
Clouds: Few Clouds
Visibility: 16 km
Cloud details: Few Clouds 396 m
Few Clouds 6096 m
2019/07/16 23:56 KSFO 162356Z 27021G28KT 10SM FEW013 FEW200 22/11 A2990 RMK AO2 PK WND 27030/2334 SLP126 T02170106 10250 20194 58001
KE16 - San Martin, California, USA
Distance from station: ØSØ 43km
Oppdatert: 17/07/2019 02:30
Klart
Klart
 Vind fra NV
Vind: NV 30 km/h, Vindkast: 43 km/h
Temperatur: 29°C
Duggpunkt: 9°C
Fuktighet: 29%
Barometer: 1012.2 hPa
Clouds: Klart
Visibility: 16 km
2019/07/17 00:30 KE16 170030Z AUTO 32016G23KT 10SM CLR 29/09 A2989 RMK AO2
 
KWVI - Watsonville, California, USA
Distance from station: SSØ 44km
Oppdatert: 17/07/2019 01:53
Klart
Klart
 Vind fra SSØ
Vind: SSØ 11 km/h
Temperatur: 20°C
Duggpunkt: 13°C
Fuktighet: 64%
Barometer: 1013.5 hPa
Clouds: Klart
Visibility: 16 km
2019/07/16 23:53 KWVI 162353Z AUTO 16006KT 10SM CLR 20/13 A2993 RMK AO2 SLP135 T02000133 10217 20178 58010
KHAF - Half Moon Bay, California, USA
Distance from station: VNV 50km
Oppdatert: 17/07/2019 02:40
Overskyet
Overskyet
 Vind fra NV
Vind: NV 9 km/h
Temperatur: 17°C
Duggpunkt: 13°C
Fuktighet: 77%
Barometer: 1014.6 hPa
Clouds: Overskyet
Visibility: 14 km
Cloud details: Overskyet 366 m
2019/07/17 00:40 KHAF 170040Z AUTO 31005KT 9SM OVC012 17/13 A2996 RMK AO2
 
KHWD - Hayward, California, USA
Distance from station: N 44km
Oppdatert: 17/07/2019 01:54
Klart
Klart
 Vind fra V
Vind: V 24 km/h
Temperatur: 22°C
Duggpunkt: 13°C
Fuktighet: 57%
Barometer: 1012.5 hPa
Clouds: Klart
Visibility: 16 km
2019/07/16 23:54 KHWD 162354Z 27013KT 10SM CLR 22/13 A2990 RMK AO2 SLP135 T02170128 10244 20200 58006
KLVK - Livermore, California, USA
Distance from station: NNØ 51km
Oppdatert: 17/07/2019 01:53
Klart
Klart
 Vind fra V
Vind: V 26 km/h
Temperatur: 28°C
Duggpunkt: 8°C
Fuktighet: 28%
Barometer: 1011.5 hPa
Clouds: Klart
Visibility: 16 km
2019/07/16 23:53 KLVK 162353Z 26014KT 10SM CLR 28/08 A2987 RMK AO2 SLP111 T02780083 10317 20250 56003